WJA5960 KLEX-CYYC
Flight info
| Callsign | WJA5960 |
|---|---|
| Flight time | N/A |
| Altitude | 36000 |
| Route | SHB DCT CARYN DCT SIBER J30 ODI J36 FAR DCT ISN DCT PEMDU DCT YQL DCT ILOSA EBGAL7 |
| Aircraft | B738/M-SDE2E3FGHIRWXY/LB1 |
Departure
| Time | 2026-05-01 11:38 |
|---|---|
| Airport | Blue Grass Airport (KLEX) |
Arrival
| Time | N/A |
|---|---|
| Airport | Calgary International Airport (CYYC) |
| Time | Latitude | Longitude | Altitude | Speed | Heading |
|---|---|---|---|---|---|
| 2026-05-01 11:13 | 38.03762 | -84.60023 | 950 ft | 0 kts | 91° |
| 2026-05-01 11:30 | 38.03762 | -84.60035 | 951 ft | 4 kts | 100° |
| 2026-05-01 11:31 | 38.03768 | -84.60066 | 949 ft | 4 kts | 99° |
| 2026-05-01 11:31 | 38.03767 | -84.60097 | 948 ft | 4 kts | 56° |
| 2026-05-01 11:31 | 38.03749 | -84.60116 | 950 ft | 3 kts | 18° |
| 2026-05-01 11:31 | 38.03742 | -84.60119 | 950 ft | 0 kts | 18° |
| 2026-05-01 11:35 | 38.03761 | -84.60111 | 949 ft | 8 kts | 18° |
| 2026-05-01 11:35 | 38.03836 | -84.60051 | 951 ft | 17 kts | 39° |
| 2026-05-01 11:36 | 38.03936 | -84.60003 | 952 ft | 15 kts | 16° |
| 2026-05-01 11:36 | 38.04018 | -84.59925 | 952 ft | 13 kts | 42° |
| 2026-05-01 11:36 | 38.04082 | -84.59853 | 956 ft | 12 kts | 42° |
| 2026-05-01 11:36 | 38.04156 | -84.59842 | 956 ft | 12 kts | 327° |
| 2026-05-01 11:37 | 38.04187 | -84.59898 | 954 ft | 7 kts | 269° |
| 2026-05-01 11:37 | 38.04160 | -84.59957 | 953 ft | 9 kts | 221° |
| 2026-05-01 11:37 | 38.04015 | -84.60123 | 951 ft | 65 kts | 221° |
| 2026-05-01 11:37 | 38.03466 | -84.60733 | 941 ft | 140 kts | 221° |
| 2026-05-01 11:38 | 38.02551 | -84.61663 | 1057 ft | 189 kts | 217° |
| 2026-05-01 11:38 | 38.01487 | -84.62737 | 1639 ft | 203 kts | 219° |
| 2026-05-01 11:38 | 38.00467 | -84.64021 | 2482 ft | 204 kts | 229° |
| 2026-05-01 11:38 | 37.99726 | -84.65512 | 3389 ft | 198 kts | 249° |
| 2026-05-01 11:39 | 37.99571 | -84.67251 | 4060 ft | 208 kts | 278° |
| 2026-05-01 11:39 | 38.00148 | -84.68971 | 4608 ft | 225 kts | 304° |
| 2026-05-01 11:39 | 38.01371 | -84.70389 | 4982 ft | 257 kts | 326° |
| 2026-05-01 11:39 | 38.03140 | -84.71169 | 5481 ft | 282 kts | 348° |
| 2026-05-01 11:40 | 38.05126 | -84.71054 | 6110 ft | 295 kts | 11° |
| 2026-05-01 11:40 | 38.07023 | -84.69958 | 6708 ft | 309 kts | 31° |
| 2026-05-01 11:40 | 38.08795 | -84.68235 | 7082 ft | 335 kts | 35° |
| 2026-05-01 11:40 | 38.10684 | -84.66356 | 7520 ft | 353 kts | 35° |
| 2026-05-01 11:41 | 38.12677 | -84.64531 | 8211 ft | 349 kts | 25° |
| 2026-05-01 11:41 | 38.14937 | -84.63525 | 9171 ft | 346 kts | 6° |
| 2026-05-01 11:41 | 38.17358 | -84.63501 | 9705 ft | 353 kts | 347° |
| 2026-05-01 11:41 | 38.19701 | -84.64402 | 10235 ft | 354 kts | 332° |
| 2026-05-01 11:42 | 38.21872 | -84.65842 | 10652 ft | 349 kts | 326° |
| 2026-05-01 11:42 | 38.23935 | -84.67454 | 11053 ft | 347 kts | 323° |
| 2026-05-01 11:42 | 38.25966 | -84.69126 | 11471 ft | 347 kts | 322° |
| 2026-05-01 11:42 | 38.27987 | -84.70810 | 11913 ft | 354 kts | 322° |
| 2026-05-01 11:43 | 38.29997 | -84.72483 | 12357 ft | 363 kts | 322° |
| 2026-05-01 11:43 | 38.32129 | -84.74243 | 12810 ft | 366 kts | 322° |
| 2026-05-01 11:43 | 38.34261 | -84.75986 | 13251 ft | 366 kts | 322° |
| 2026-05-01 11:44 | 38.38561 | -84.79478 | 14122 ft | 367 kts | 322° |
| 2026-05-01 11:44 | 38.40714 | -84.81222 | 14533 ft | 367 kts | 322° |
| 2026-05-01 11:44 | 38.42870 | -84.82968 | 14949 ft | 368 kts | 322° |
| 2026-05-01 11:44 | 38.45007 | -84.84699 | 15369 ft | 369 kts | 322° |
| 2026-05-01 11:45 | 38.47013 | -84.86325 | 15770 ft | 370 kts | 322° |
| 2026-05-01 11:45 | 38.49193 | -84.88093 | 16193 ft | 371 kts | 322° |
| 2026-05-01 11:45 | 38.51265 | -84.89774 | 16617 ft | 372 kts | 321° |
| 2026-05-01 11:45 | 38.53453 | -84.91551 | 17076 ft | 373 kts | 321° |
| 2026-05-01 11:46 | 38.55639 | -84.93327 | 17543 ft | 374 kts | 321° |
| 2026-05-01 11:46 | 38.57848 | -84.95124 | 17996 ft | 375 kts | 321° |
| 2026-05-01 11:46 | 38.60050 | -84.96916 | 18428 ft | 376 kts | 321° |
| 2026-05-01 11:46 | 38.62261 | -84.98717 | 18852 ft | 378 kts | 321° |
| 2026-05-01 11:47 | 38.64485 | -85.00530 | 19265 ft | 380 kts | 320° |
| 2026-05-01 11:47 | 38.66721 | -85.02345 | 19679 ft | 382 kts | 320° |
| 2026-05-01 11:47 | 38.68970 | -85.04181 | 20100 ft | 384 kts | 320° |
| 2026-05-01 11:47 | 38.71227 | -85.06029 | 20536 ft | 386 kts | 320° |
| 2026-05-01 11:48 | 38.73498 | -85.07888 | 20991 ft | 387 kts | 320° |
| 2026-05-01 11:48 | 38.75771 | -85.09750 | 21422 ft | 389 kts | 320° |
| 2026-05-01 11:48 | 38.78055 | -85.11621 | 21854 ft | 391 kts | 320° |
| 2026-05-01 11:48 | 38.80348 | -85.13500 | 22360 ft | 392 kts | 320° |
| 2026-05-01 11:49 | 38.82654 | -85.15392 | 22830 ft | 394 kts | 320° |
| 2026-05-01 11:49 | 38.84971 | -85.17293 | 23303 ft | 397 kts | 320° |
| 2026-05-01 11:49 | 38.87269 | -85.19182 | 23736 ft | 399 kts | 319° |
| 2026-05-01 11:49 | 38.89648 | -85.21138 | 24134 ft | 401 kts | 319° |
| 2026-05-01 11:50 | 38.91975 | -85.23052 | 24532 ft | 403 kts | 319° |
| 2026-05-01 11:50 | 38.94339 | -85.24999 | 24925 ft | 405 kts | 319° |
| 2026-05-01 11:50 | 38.96739 | -85.26975 | 25333 ft | 406 kts | 318° |
| 2026-05-01 11:50 | 38.99120 | -85.28937 | 25749 ft | 406 kts | 318° |
| 2026-05-01 11:51 | 39.01509 | -85.30908 | 26171 ft | 406 kts | 317° |
| 2026-05-01 11:51 | 39.03848 | -85.32838 | 26634 ft | 406 kts | 317° |
| 2026-05-01 11:51 | 39.06256 | -85.34827 | 27067 ft | 406 kts | 317° |
| 2026-05-01 11:51 | 39.08598 | -85.36764 | 27499 ft | 405 kts | 316° |
| 2026-05-01 11:52 | 39.10966 | -85.38723 | 27938 ft | 404 kts | 316° |
| 2026-05-01 11:52 | 39.13318 | -85.40670 | 28384 ft | 403 kts | 316° |
| 2026-05-01 11:52 | 39.15671 | -85.42620 | 28855 ft | 401 kts | 315° |
| 2026-05-01 11:52 | 39.18012 | -85.44562 | 29334 ft | 399 kts | 315° |
| 2026-05-01 11:53 | 39.20339 | -85.46492 | 29806 ft | 396 kts | 315° |
| 2026-05-01 11:53 | 39.22643 | -85.48404 | 30242 ft | 394 kts | 315° |
| 2026-05-01 11:53 | 39.24938 | -85.50313 | 30636 ft | 391 kts | 315° |
| 2026-05-01 11:53 | 39.27215 | -85.52208 | 31085 ft | 387 kts | 315° |
| 2026-05-01 11:54 | 39.29473 | -85.54089 | 31492 ft | 385 kts | 315° |
| 2026-05-01 11:54 | 39.31702 | -85.55947 | 31911 ft | 381 kts | 315° |
| 2026-05-01 11:54 | 39.33924 | -85.57801 | 32329 ft | 378 kts | 315° |
| 2026-05-01 11:54 | 39.36124 | -85.59639 | 32740 ft | 375 kts | 314° |
| 2026-05-01 11:55 | 39.38319 | -85.61480 | 32932 ft | 378 kts | 314° |
| 2026-05-01 11:55 | 39.40531 | -85.63337 | 33167 ft | 380 kts | 314° |
| 2026-05-01 11:55 | 39.42758 | -85.65207 | 33384 ft | 383 kts | 314° |
| 2026-05-01 11:55 | 39.45003 | -85.67089 | 33626 ft | 385 kts | 315° |
| 2026-05-01 11:56 | 39.47243 | -85.68968 | 33846 ft | 386 kts | 315° |
| 2026-05-01 11:56 | 39.49497 | -85.70858 | 34064 ft | 386 kts | 315° |
| 2026-05-01 11:56 | 39.51756 | -85.72753 | 34315 ft | 387 kts | 314° |
| 2026-05-01 11:56 | 39.54017 | -85.74652 | 34513 ft | 388 kts | 314° |
| 2026-05-01 11:57 | 39.56285 | -85.76560 | 34708 ft | 389 kts | 315° |
| 2026-05-01 11:57 | 39.57786 | -85.77822 | 34830 ft | 389 kts | 315° |
| 2026-05-01 11:57 | 39.60822 | -85.80379 | 35102 ft | 390 kts | 315° |
| 2026-05-01 11:57 | 39.63094 | -85.82314 | 35293 ft | 388 kts | 313° |
| 2026-05-01 11:58 | 39.65133 | -85.84506 | 35500 ft | 378 kts | 307° |
| 2026-05-01 11:58 | 39.67044 | -85.86864 | 35699 ft | 377 kts | 306° |
| 2026-05-01 11:58 | 39.70787 | -85.91616 | 35937 ft | 381 kts | 306° |
| 2026-05-01 11:59 | 39.72687 | -85.94024 | 35954 ft | 384 kts | 306° |
| 2026-05-01 11:59 | 39.76547 | -85.98872 | 35965 ft | 388 kts | 307° |
| 2026-05-01 12:00 | 39.82421 | -86.06190 | 35965 ft | 390 kts | 307° |
| 2026-05-01 12:01 | 39.88283 | -86.13492 | 35966 ft | 390 kts | 307° |
| 2026-05-01 12:01 | 39.92181 | -86.18357 | 35968 ft | 389 kts | 307° |
| 2026-05-01 12:02 | 39.96078 | -86.23230 | 35968 ft | 387 kts | 307° |
| 2026-05-01 12:02 | 39.99974 | -86.28114 | 35996 ft | 389 kts | 307° |
| 2026-05-01 12:03 | 40.03873 | -86.33010 | 35990 ft | 390 kts | 307° |
| 2026-05-01 12:03 | 40.07771 | -86.37911 | 35981 ft | 391 kts | 307° |
| 2026-05-01 12:04 | 40.11672 | -86.42822 | 35979 ft | 391 kts | 307° |
| 2026-05-01 12:04 | 40.15580 | -86.47752 | 35983 ft | 391 kts | 307° |
| 2026-05-01 12:05 | 40.19491 | -86.52693 | 35980 ft | 391 kts | 307° |
| 2026-05-01 12:05 | 40.25389 | -86.60167 | 35989 ft | 396 kts | 307° |
| 2026-05-01 12:06 | 40.29357 | -86.65204 | 35987 ft | 399 kts | 307° |
| 2026-05-01 12:06 | 40.33345 | -86.70272 | 35983 ft | 401 kts | 307° |
| 2026-05-01 12:07 | 40.36677 | -86.74513 | 36015 ft | 401 kts | 307° |
| 2026-05-01 12:07 | 40.40678 | -86.79614 | 36014 ft | 402 kts | 307° |
| 2026-05-01 12:08 | 40.44687 | -86.84733 | 36029 ft | 403 kts | 308° |
| 2026-05-01 12:08 | 40.48716 | -86.89892 | 36025 ft | 405 kts | 308° |
| 2026-05-01 12:09 | 40.52755 | -86.95070 | 36017 ft | 406 kts | 308° |
| 2026-05-01 12:09 | 40.56806 | -87.00274 | 36020 ft | 408 kts | 308° |
| 2026-05-01 12:10 | 40.62907 | -87.08126 | 36014 ft | 409 kts | 308° |
| 2026-05-01 12:11 | 40.69006 | -87.15996 | 36016 ft | 410 kts | 308° |
| 2026-05-01 12:11 | 40.73071 | -87.21253 | 36021 ft | 409 kts | 308° |
| 2026-05-01 12:12 | 40.77134 | -87.26519 | 36026 ft | 409 kts | 308° |
| 2026-05-01 12:12 | 40.81187 | -87.31781 | 36024 ft | 409 kts | 308° |
| 2026-05-01 12:13 | 40.85238 | -87.37049 | 36026 ft | 408 kts | 308° |
| 2026-05-01 12:13 | 40.89287 | -87.42326 | 36056 ft | 409 kts | 308° |
| 2026-05-01 12:14 | 40.93348 | -87.47630 | 36044 ft | 411 kts | 308° |
| 2026-05-01 12:14 | 40.97417 | -87.52951 | 36043 ft | 412 kts | 308° |
| 2026-05-01 12:15 | 41.01503 | -87.58303 | 36053 ft | 413 kts | 308° |
| 2026-05-01 12:15 | 41.05580 | -87.63654 | 36065 ft | 413 kts | 308° |
| 2026-05-01 12:16 | 41.09653 | -87.69011 | 36064 ft | 413 kts | 308° |
| 2026-05-01 12:16 | 41.13737 | -87.74392 | 36069 ft | 414 kts | 309° |
| 2026-05-01 12:17 | 41.17824 | -87.79788 | 36066 ft | 415 kts | 309° |
| 2026-05-01 12:17 | 41.21912 | -87.85193 | 36064 ft | 415 kts | 309° |
| 2026-05-01 12:18 | 41.26011 | -87.90607 | 36063 ft | 416 kts | 309° |
| 2026-05-01 12:18 | 41.30191 | -87.95941 | 36059 ft | 417 kts | 310° |
| 2026-05-01 12:19 | 41.34392 | -88.01255 | 36095 ft | 417 kts | 310° |
| 2026-05-01 12:19 | 41.38531 | -88.06516 | 36070 ft | 418 kts | 310° |
| 2026-05-01 12:20 | 41.42736 | -88.11885 | 36065 ft | 419 kts | 310° |
| 2026-05-01 12:20 | 41.46939 | -88.17267 | 36061 ft | 419 kts | 310° |
| 2026-05-01 12:21 | 41.51136 | -88.22652 | 36074 ft | 419 kts | 310° |
| 2026-05-01 12:21 | 41.55329 | -88.28044 | 36112 ft | 419 kts | 310° |
| 2026-05-01 12:22 | 41.59524 | -88.33450 | 36083 ft | 420 kts | 310° |
| 2026-05-01 12:22 | 41.63737 | -88.38887 | 36074 ft | 421 kts | 310° |
| 2026-05-01 12:23 | 41.67950 | -88.44335 | 36073 ft | 421 kts | 310° |
| 2026-05-01 12:23 | 41.72158 | -88.49786 | 36068 ft | 421 kts | 310° |
| 2026-05-01 12:24 | 41.76361 | -88.55242 | 36074 ft | 421 kts | 310° |
| 2026-05-01 12:24 | 41.80570 | -88.60717 | 36086 ft | 422 kts | 311° |
| 2026-05-01 12:25 | 41.86897 | -88.68966 | 36081 ft | 423 kts | 310° |
| 2026-05-01 12:26 | 41.91084 | -88.74439 | 36084 ft | 423 kts | 310° |
| 2026-05-01 12:26 | 41.97430 | -88.82751 | 36085 ft | 423 kts | 310° |
| 2026-05-01 12:27 | 42.03725 | -88.91024 | 36092 ft | 424 kts | 311° |
| 2026-05-01 12:28 | 42.10055 | -88.99365 | 36087 ft | 425 kts | 311° |
| 2026-05-01 12:29 | 42.16388 | -89.07736 | 36087 ft | 425 kts | 311° |
| 2026-05-01 12:29 | 42.22724 | -89.16136 | 36099 ft | 427 kts | 311° |
| 2026-05-01 12:30 | 42.29066 | -89.24569 | 36087 ft | 428 kts | 311° |
| 2026-05-01 12:31 | 42.33312 | -89.30228 | 36093 ft | 429 kts | 311° |
| 2026-05-01 12:31 | 42.37556 | -89.35896 | 36094 ft | 429 kts | 311° |
| 2026-05-01 12:32 | 42.41803 | -89.41580 | 36102 ft | 430 kts | 311° |
| 2026-05-01 12:32 | 42.48206 | -89.50171 | 36071 ft | 432 kts | 311° |
| 2026-05-01 12:33 | 42.52477 | -89.55916 | 36074 ft | 433 kts | 311° |
| 2026-05-01 12:33 | 42.56754 | -89.61680 | 36065 ft | 434 kts | 311° |
| 2026-05-01 12:34 | 42.61026 | -89.67451 | 36075 ft | 434 kts | 311° |
| 2026-05-01 12:34 | 42.65305 | -89.73242 | 36083 ft | 435 kts | 311° |
| 2026-05-01 12:35 | 42.69589 | -89.79052 | 36085 ft | 435 kts | 311° |
| 2026-05-01 12:35 | 42.73881 | -89.84885 | 36081 ft | 436 kts | 311° |
| 2026-05-01 12:36 | 42.78159 | -89.90711 | 36086 ft | 436 kts | 311° |
| 2026-05-01 12:36 | 42.82441 | -89.96553 | 36093 ft | 436 kts | 311° |
| 2026-05-01 12:37 | 42.86722 | -90.02408 | 36092 ft | 435 kts | 311° |
| 2026-05-01 12:37 | 42.90993 | -90.08261 | 36096 ft | 435 kts | 311° |
| 2026-05-01 12:38 | 42.95263 | -90.14124 | 36096 ft | 435 kts | 311° |
| 2026-05-01 12:38 | 42.99496 | -90.19951 | 36102 ft | 435 kts | 311° |
| 2026-05-01 12:39 | 43.03777 | -90.25854 | 36113 ft | 435 kts | 311° |
| 2026-05-01 12:39 | 43.08019 | -90.31717 | 36105 ft | 436 kts | 311° |
| 2026-05-01 12:40 | 43.12300 | -90.37643 | 36100 ft | 436 kts | 311° |
| 2026-05-01 12:40 | 43.16562 | -90.43504 | 36107 ft | 436 kts | 312° |
| 2026-05-01 12:41 | 43.20909 | -90.49394 | 36110 ft | 437 kts | 312° |
| 2026-05-01 12:41 | 43.25194 | -90.55212 | 36116 ft | 438 kts | 312° |
| 2026-05-01 12:42 | 43.29516 | -90.61104 | 36109 ft | 438 kts | 312° |
| 2026-05-01 12:42 | 43.33834 | -90.67010 | 36112 ft | 438 kts | 312° |
| 2026-05-01 12:43 | 43.38155 | -90.72933 | 36112 ft | 439 kts | 312° |
| 2026-05-01 12:43 | 43.42472 | -90.78863 | 36111 ft | 439 kts | 312° |
| 2026-05-01 12:44 | 43.44787 | -90.81602 | 36094 ft | 444 kts | 326° |
| 2026-05-01 12:44 | 43.47684 | -90.83163 | 36125 ft | 453 kts | 345° |